LEST Airport Information

Runway Information
Runway 17 Length 10499 ft width 148 ft
Elevation 1170 ft Threshold 394 ft Heading 166
Runway 35 Length 10499 ft Width 148 ft
Elevation 1196 ft Threshold 0 ft Heading 346
Airport Frequencies
Type APP Name APP Frequency 118.2 MHZ
Type GND Name GND Frequency 121.7 MHZ
Type TWR Name TWR Frequency 118.75 MHZ
Airport Navaids
Type NDB Name Santiago Frequency 417 KHZ
Type VOR-DME Name Santiago Frequency 116400 KHZ
Airport Weather Information & NOTAM
ADDS - METARS form results

(1604 UTC 04 December 2021)
Data provider http://aviationweather.gov/metar/data/
 
METAR text: LEST 041600Z VRB03KT 9999 SCT020 09/08 Q1025 NOSIG
Conditions at: LEST (SANTIAGO/LABACOL, ES) observed 1600 UTC 04 December 2021
Temperature: 9.0°C (48°F)
Dewpoint: 8.0°C (46°F) [RH = 93%]
Pressure (altimeter): 30.27 inches Hg (1025.0 mb)
Winds: variable direction winds at 3 MPH (3 knots; 1.5 m/s)
Visibility: 6 or more miles (10+ km)
Ceiling: at least 12,000 feet AGL
Clouds: scattered clouds at 2000 feet AGL
Weather: no significant weather observed at this time

METAR text: LEST 041530Z 31005KT 280V350 9999 SCT009 BKN020 09/09 Q1025 NOSIG
Conditions at: LEST (SANTIAGO/LABACOL, ES) observed 1530 UTC 04 December 2021
Temperature: 9.0°C (48°F)
Dewpoint: 9.0°C (48°F) [RH = 100%]
Pressure (altimeter): 30.27 inches Hg (1025.0 mb)
Winds: from the NW (310 degrees) at 6 MPH (5 knots; 2.6 m/s)
Visibility: 6 or more miles (10+ km)
Ceiling: 2000 feet AGL
Clouds: scattered clouds at 900 feet AGL
broken clouds at 2000 feet AGL
Weather: no significant weather observed at this time

METAR text: LEST 041513Z 34011KT 320V020 4500 -RADZ SCT009 BKN013 09/08 Q1025 NOSIG
Conditions at: LEST (SANTIAGO/LABACOL, ES) observed 1513 UTC 04 December 2021
Temperature: 9.0°C (48°F)
Dewpoint: 8.0°C (46°F) [RH = 93%]
Pressure (altimeter): 30.27 inches Hg (1025.0 mb)
Winds: from the NNW (340 degrees) at 13 MPH (11 knots; 5.7 m/s)
Visibility: 2.80 miles (4.51 km)
Ceiling: 1300 feet AGL
Clouds: scattered clouds at 900 feet AGL
broken clouds at 1300 feet AGL
Weather: -RA -DZ  (light rain, light drizzle)

Forecast for: AMD
Text: TAF AMD LEST 041333Z 0413/0512 32008KT 9999 SCT025 TX13/0414Z TN05/0507Z
Forecast period: 1300 UTC 04 December 2021 to 1200 UTC 05 December 2021
Forecast type: FROM: standard forecast or significant change
Winds: from the NW (320 degrees) at 9 MPH (8 knots; 4.1 m/s)
Visibility: 6 or more miles (10+ km)
Ceiling: at least 12,000 feet AGL
Clouds: scattered clouds at 2500 feet AGL
Weather: no significant weather forecast for this period
Text: PROB30
Forecast period: 1300 to 2100 UTC 04 December 2021
Forecast type: TEMPORARY: The following changes expected for less than half the time period
Visibility: missing
Ceiling: 1000 feet AGL
Clouds: broken clouds at 1000 feet AGL
scattered clouds at 3000 feet AGL
Weather: RA SHRA  (moderate rain, rain showers)
Text: TEMPO 0413/0421 RA SHRA BKN010 SCT030TCU
Forecast period: 2100 UTC 04 December 2021 to 0900 UTC 05 December 2021
Forecast type: TEMPORARY: The following changes expected for less than half the time period
Visibility: 1.86 miles (2.99 km)
Ceiling: 1000 feet AGL
Clouds: broken clouds at 1000 feet AGL
Weather: -RA  (light rain)